sensor_id;sensor_type;location;lat;lon;timestamp;temperature;humidity
72114;SHT31;59989;46.220;19.888;2023-02-01T00:01:38;3.78;76.14
72114;SHT31;59989;46.220;19.888;2023-02-01T00:04:40;3.73;77.20
72114;SHT31;59989;46.220;19.888;2023-02-01T00:07:46;3.69;76.72
72114;SHT31;59989;46.220;19.888;2023-02-01T00:11:00;3.70;76.39
72114;SHT31;59989;46.220;19.888;2023-02-01T00:14:03;3.67;76.31
72114;SHT31;59989;46.220;19.888;2023-02-01T00:17:05;3.64;76.49
72114;SHT31;59989;46.220;19.888;2023-02-01T00:20:09;3.66;75.94
72114;SHT31;59989;46.220;19.888;2023-02-01T00:23:12;3.63;76.96
72114;SHT31;59989;46.220;19.888;2023-02-01T00:26:16;3.60;76.94
72114;SHT31;59989;46.220;19.888;2023-02-01T00:29:20;3.57;76.52
72114;SHT31;59989;46.220;19.888;2023-02-01T00:32:23;3.53;77.30
72114;SHT31;59989;46.220;19.888;2023-02-01T00:35:25;3.56;76.55
72114;SHT31;59989;46.220;19.888;2023-02-01T00:38:29;3.52;76.40
72114;SHT31;59989;46.220;19.888;2023-02-01T00:41:32;3.49;75.85
72114;SHT31;59989;46.220;19.888;2023-02-01T00:44:35;3.47;75.96
72114;SHT31;59989;46.220;19.888;2023-02-01T00:47:38;3.44;76.18
72114;SHT31;59989;46.220;19.888;2023-02-01T00:50:42;3.47;75.59
72114;SHT31;59989;46.220;19.888;2023-02-01T00:53:44;3.44;76.01
72114;SHT31;59989;46.220;19.888;2023-02-01T00:56:47;3.46;75.67
72114;SHT31;59989;46.220;19.888;2023-02-01T00:59:50;3.44;75.62
72114;SHT31;59989;46.220;19.888;2023-02-01T01:02:53;3.49;75.60
72114;SHT31;59989;46.220;19.888;2023-02-01T01:05:56;3.50;75.53
72114;SHT31;59989;46.220;19.888;2023-02-01T01:09:02;3.44;75.59
72114;SHT31;59989;46.220;19.888;2023-02-01T01:12:05;3.52;74.24
72114;SHT31;59989;46.220;19.888;2023-02-01T01:15:08;3.56;73.83
72114;SHT31;59989;46.220;19.888;2023-02-01T01:18:11;3.56;73.80
72114;SHT31;59989;46.220;19.888;2023-02-01T01:21:14;3.52;75.04
72114;SHT31;59989;46.220;19.888;2023-02-01T01:24:17;3.52;75.40
72114;SHT31;59989;46.220;19.888;2023-02-01T01:27:20;3.47;75.02
72114;SHT31;59989;46.220;19.888;2023-02-01T01:30:25;3.49;75.61
72114;SHT31;59989;46.220;19.888;2023-02-01T01:33:28;3.49;75.85
72114;SHT31;59989;46.220;19.888;2023-02-01T01:36:31;3.50;75.02
72114;SHT31;59989;46.220;19.888;2023-02-01T01:39:34;3.53;75.24
72114;SHT31;59989;46.220;19.888;2023-02-01T01:42:38;3.46;76.35
72114;SHT31;59989;46.220;19.888;2023-02-01T01:45:41;3.42;76.58
72114;SHT31;59989;46.220;19.888;2023-02-01T01:48:46;3.40;76.85
72114;SHT31;59989;46.220;19.888;2023-02-01T01:51:53;3.40;77.27
72114;SHT31;59989;46.220;19.888;2023-02-01T01:54:57;3.42;76.55
72114;SHT31;59989;46.220;19.888;2023-02-01T01:58:06;3.42;76.88
72114;SHT31;59989;46.220;19.888;2023-02-01T02:01:10;3.40;77.19
72114;SHT31;59989;46.220;19.888;2023-02-01T02:04:13;3.42;77.04
72114;SHT31;59989;46.220;19.888;2023-02-01T02:07:21;3.40;77.39
72114;SHT31;59989;46.220;19.888;2023-02-01T02:10:25;3.39;77.59
72114;SHT31;59989;46.220;19.888;2023-02-01T02:13:51;3.38;78.20
72114;SHT31;59989;46.220;19.888;2023-02-01T02:27:33;3.33;77.16
72114;SHT31;59989;46.220;19.888;2023-02-01T02:37:42;3.35;75.62
72114;SHT31;59989;46.220;19.888;2023-02-01T02:44:49;3.38;76.22
72114;SHT31;59989;46.220;19.888;2023-02-01T02:48:29;3.43;74.89
72114;SHT31;59989;46.220;19.888;2023-02-01T02:51:38;3.52;74.35
72114;SHT31;59989;46.220;19.888;2023-02-01T02:55:05;3.66;73.19
72114;SHT31;59989;46.220;19.888;2023-02-01T02:58:11;3.84;71.35
72114;SHT31;59989;46.220;19.888;2023-02-01T03:01:34;3.88;70.91
72114;SHT31;59989;46.220;19.888;2023-02-01T03:04:55;3.93;69.94
72114;SHT31;59989;46.220;19.888;2023-02-01T03:08:08;3.88;70.50
72114;SHT31;59989;46.220;19.888;2023-02-01T03:11:13;3.98;69.31
72114;SHT31;59989;46.220;19.888;2023-02-01T03:14:18;3.98;70.43
72114;SHT31;59989;46.220;19.888;2023-02-01T03:17:31;3.98;69.60
72114;SHT31;59989;46.220;19.888;2023-02-01T03:20:38;3.95;70.95
72114;SHT31;59989;46.220;19.888;2023-02-01T03:23:45;3.98;71.07
72114;SHT31;59989;46.220;19.888;2023-02-01T03:26:55;3.97;70.88
72114;SHT31;59989;46.220;19.888;2023-02-01T03:30:10;3.95;71.60
72114;SHT31;59989;46.220;19.888;2023-02-01T03:33:16;3.88;71.35
72114;SHT31;59989;46.220;19.888;2023-02-01T03:40:00;3.87;71.31
72114;SHT31;59989;46.220;19.888;2023-02-01T03:43:06;3.83;71.76
72114;SHT31;59989;46.220;19.888;2023-02-01T03:46:16;3.81;72.50
72114;SHT31;59989;46.220;19.888;2023-02-01T03:49:29;3.77;72.69
72114;SHT31;59989;46.220;19.888;2023-02-01T03:52:43;3.83;71.21
72114;SHT31;59989;46.220;19.888;2023-02-01T03:55:49;3.84;71.09
72114;SHT31;59989;46.220;19.888;2023-02-01T03:58:53;3.81;71.64
72114;SHT31;59989;46.220;19.888;2023-02-01T04:02:07;3.81;71.64
72114;SHT31;59989;46.220;19.888;2023-02-01T04:05:10;3.83;70.56
72114;SHT31;59989;46.220;19.888;2023-02-01T04:08:21;3.87;71.23
72114;SHT31;59989;46.220;19.888;2023-02-01T04:11:23;3.84;71.16
72114;SHT31;59989;46.220;19.888;2023-02-01T04:14:26;3.86;70.47
72114;SHT31;59989;46.220;19.888;2023-02-01T04:17:29;3.80;70.49
72114;SHT31;59989;46.220;19.888;2023-02-01T04:20:32;3.73;70.98
72114;SHT31;59989;46.220;19.888;2023-02-01T04:23:34;3.71;71.24
72114;SHT31;59989;46.220;19.888;2023-02-01T04:26:38;3.70;71.14
72114;SHT31;59989;46.220;19.888;2023-02-01T04:29:41;3.67;71.63
72114;SHT31;59989;46.220;19.888;2023-02-01T04:32:43;3.66;71.47
72114;SHT31;59989;46.220;19.888;2023-02-01T04:35:47;3.71;71.46
72114;SHT31;59989;46.220;19.888;2023-02-01T04:38:52;3.66;71.86
72114;SHT31;59989;46.220;19.888;2023-02-01T04:41:55;3.69;71.20
72114;SHT31;59989;46.220;19.888;2023-02-01T04:44:57;3.69;70.87
72114;SHT31;59989;46.220;19.888;2023-02-01T04:48:00;3.67;71.09
72114;SHT31;59989;46.220;19.888;2023-02-01T04:51:03;3.60;71.41
72114;SHT31;59989;46.220;19.888;2023-02-01T04:54:06;3.60;72.11
72114;SHT31;59989;46.220;19.888;2023-02-01T04:57:08;3.59;71.53
72114;SHT31;59989;46.220;19.888;2023-02-01T05:00:11;3.52;71.76
72114;SHT31;59989;46.220;19.888;2023-02-01T05:03:15;3.52;71.86
72114;SHT31;59989;46.220;19.888;2023-02-01T05:06:18;3.36;72.61
72114;SHT31;59989;46.220;19.888;2023-02-01T05:09:20;3.39;71.88
72114;SHT31;59989;46.220;19.888;2023-02-01T05:12:24;3.39;72.91
72114;SHT31;59989;46.220;19.888;2023-02-01T05:15:45;3.46;72.43
72114;SHT31;59989;46.220;19.888;2023-02-01T05:18:48;3.40;72.64
72114;SHT31;59989;46.220;19.888;2023-02-01T05:21:50;3.32;72.42
72114;SHT31;59989;46.220;19.888;2023-02-01T05:24:53;3.16;73.50
72114;SHT31;59989;46.220;19.888;2023-02-01T05:27:55;3.01;73.64
72114;SHT31;59989;46.220;19.888;2023-02-01T05:30:58;2.85;74.68
72114;SHT31;59989;46.220;19.888;2023-02-01T05:34:01;2.73;75.30
72114;SHT31;59989;46.220;19.888;2023-02-01T05:37:04;2.62;75.36
72114;SHT31;59989;46.220;19.888;2023-02-01T05:40:07;2.56;75.63
72114;SHT31;59989;46.220;19.888;2023-02-01T05:43:10;2.53;75.77
72114;SHT31;59989;46.220;19.888;2023-02-01T05:46:13;2.51;75.24
72114;SHT31;59989;46.220;19.888;2023-02-01T05:49:15;2.39;75.95
72114;SHT31;59989;46.220;19.888;2023-02-01T05:52:18;2.37;75.88
72114;SHT31;59989;46.220;19.888;2023-02-01T05:55:21;2.28;76.68
72114;SHT31;59989;46.220;19.888;2023-02-01T05:58:24;2.25;76.78
72114;SHT31;59989;46.220;19.888;2023-02-01T06:01:26;2.20;77.10
72114;SHT31;59989;46.220;19.888;2023-02-01T06:04:29;2.19;77.25
72114;SHT31;59989;46.220;19.888;2023-02-01T06:07:31;2.12;77.17
72114;SHT31;59989;46.220;19.888;2023-02-01T06:10:34;2.12;77.51
72114;SHT31;59989;46.220;19.888;2023-02-01T06:13:37;2.05;77.88
72114;SHT31;59989;46.220;19.888;2023-02-01T06:16:40;2.13;77.42
72114;SHT31;59989;46.220;19.888;2023-02-01T06:19:43;2.11;77.77
72114;SHT31;59989;46.220;19.888;2023-02-01T06:22:46;2.05;77.45
72114;SHT31;59989;46.220;19.888;2023-02-01T06:25:57;2.08;77.93
72114;SHT31;59989;46.220;19.888;2023-02-01T06:29:00;2.11;77.76
72114;SHT31;59989;46.220;19.888;2023-02-01T06:32:04;2.16;77.67
72114;SHT31;59989;46.220;19.888;2023-02-01T06:35:10;2.15;76.74
72114;SHT31;59989;46.220;19.888;2023-02-01T06:38:18;2.15;77.29
72114;SHT31;59989;46.220;19.888;2023-02-01T06:41:21;2.19;77.35
72114;SHT31;59989;46.220;19.888;2023-02-01T06:44:23;2.18;76.57
72114;SHT31;59989;46.220;19.888;2023-02-01T06:47:26;2.32;76.03
72114;SHT31;59989;46.220;19.888;2023-02-01T06:50:28;2.26;76.56
72114;SHT31;59989;46.220;19.888;2023-02-01T06:53:31;2.23;76.76
72114;SHT31;59989;46.220;19.888;2023-02-01T06:56:36;2.22;76.87
72114;SHT31;59989;46.220;19.888;2023-02-01T06:59:38;2.37;75.80
72114;SHT31;59989;46.220;19.888;2023-02-01T07:02:41;2.47;75.32
72114;SHT31;59989;46.220;19.888;2023-02-01T07:05:44;2.53;75.77
72114;SHT31;59989;46.220;19.888;2023-02-01T07:08:47;2.99;73.36
72114;SHT31;59989;46.220;19.888;2023-02-01T07:11:49;3.09;73.95
72114;SHT31;59989;46.220;19.888;2023-02-01T07:14:53;3.26;73.52
72114;SHT31;59989;46.220;19.888;2023-02-01T07:17:55;3.42;73.30
72114;SHT31;59989;46.220;19.888;2023-02-01T07:20:58;3.56;73.15
72114;SHT31;59989;46.220;19.888;2023-02-01T07:24:01;3.83;72.53
72114;SHT31;59989;46.220;19.888;2023-02-01T07:27:03;4.09;71.30
72114;SHT31;59989;46.220;19.888;2023-02-01T07:30:07;4.15;71.38
72114;SHT31;59989;46.220;19.888;2023-02-01T07:33:10;4.24;71.06
72114;SHT31;59989;46.220;19.888;2023-02-01T07:36:15;4.52;69.95
72114;SHT31;59989;46.220;19.888;2023-02-01T07:39:18;4.65;69.64
72114;SHT31;59989;46.220;19.888;2023-02-01T07:42:21;4.74;69.16
72114;SHT31;59989;46.220;19.888;2023-02-01T07:45:23;4.81;68.79
72114;SHT31;59989;46.220;19.888;2023-02-01T07:48:26;5.03;67.64
72114;SHT31;59989;46.220;19.888;2023-02-01T07:51:29;5.05;67.60
72114;SHT31;59989;46.220;19.888;2023-02-01T07:54:32;5.24;67.34
72114;SHT31;59989;46.220;19.888;2023-02-01T07:57:34;5.35;67.40
72114;SHT31;59989;46.220;19.888;2023-02-01T08:00:37;5.53;66.46
72114;SHT31;59989;46.220;19.888;2023-02-01T08:04:00;5.67;65.87
72114;SHT31;59989;46.220;19.888;2023-02-01T08:07:03;5.76;65.71
72114;SHT31;59989;46.220;19.888;2023-02-01T08:10:05;5.77;66.31
72114;SHT31;59989;46.220;19.888;2023-02-01T08:13:13;5.93;65.17
72114;SHT31;59989;46.220;19.888;2023-02-01T08:16:17;6.16;65.10
72114;SHT31;59989;46.220;19.888;2023-02-01T08:19:19;6.38;65.23
72114;SHT31;59989;46.220;19.888;2023-02-01T08:22:23;6.55;64.44
72114;SHT31;59989;46.220;19.888;2023-02-01T08:25:25;6.73;63.89
72114;SHT31;59989;46.220;19.888;2023-02-01T08:28:27;6.67;64.21
72114;SHT31;59989;46.220;19.888;2023-02-01T08:31:31;6.62;63.97
72114;SHT31;59989;46.220;19.888;2023-02-01T08:34:33;6.75;63.16
72114;SHT31;59989;46.220;19.888;2023-02-01T08:37:37;6.92;63.58
72114;SHT31;59989;46.220;19.888;2023-02-01T08:40:39;7.13;62.53
72114;SHT31;59989;46.220;19.888;2023-02-01T08:43:44;7.19;62.92
72114;SHT31;59989;46.220;19.888;2023-02-01T08:46:46;7.37;62.43
72114;SHT31;59989;46.220;19.888;2023-02-01T08:49:49;7.55;62.12
72114;SHT31;59989;46.220;19.888;2023-02-01T08:52:53;7.67;61.78
72114;SHT31;59989;46.220;19.888;2023-02-01T08:55:55;7.75;61.75
72114;SHT31;59989;46.220;19.888;2023-02-01T08:58:58;7.86;60.72
72114;SHT31;59989;46.220;19.888;2023-02-01T09:02:01;7.93;59.76
72114;SHT31;59989;46.220;19.888;2023-02-01T09:05:04;8.14;59.97
72114;SHT31;59989;46.220;19.888;2023-02-01T09:08:07;8.54;58.66
72114;SHT31;59989;46.220;19.888;2023-02-01T09:11:16;8.86;58.09
72114;SHT31;59989;46.220;19.888;2023-02-01T09:14:18;8.54;58.26
72114;SHT31;59989;46.220;19.888;2023-02-01T09:17:21;8.20;58.98
72114;SHT31;59989;46.220;19.888;2023-02-01T09:20:23;8.10;59.64
72114;SHT31;59989;46.220;19.888;2023-02-01T09:23:27;7.99;60.01
72114;SHT31;59989;46.220;19.888;2023-02-01T09:26:30;7.75;58.96
72114;SHT31;59989;46.220;19.888;2023-02-01T09:29:34;7.65;58.57
72114;SHT31;59989;46.220;19.888;2023-02-01T09:32:37;7.71;59.89
72114;SHT31;59989;46.220;19.888;2023-02-01T09:35:39;7.79;60.04
72114;SHT31;59989;46.220;19.888;2023-02-01T09:38:42;7.69;58.82
72114;SHT31;59989;46.220;19.888;2023-02-01T09:42:21;7.58;59.33
72114;SHT31;59989;46.220;19.888;2023-02-01T09:49:04;7.61;58.91
72114;SHT31;59989;46.220;19.888;2023-02-01T09:52:12;7.69;59.14
72114;SHT31;59989;46.220;19.888;2023-02-01T09:55:26;7.71;58.32
72114;SHT31;59989;46.220;19.888;2023-02-01T09:58:36;7.88;59.10
72114;SHT31;59989;46.220;19.888;2023-02-01T10:01:40;8.03;59.23
72114;SHT31;59989;46.220;19.888;2023-02-01T10:04:43;8.09;58.39
72114;SHT31;59989;46.220;19.888;2023-02-01T10:08:35;8.12;58.67
72114;SHT31;59989;46.220;19.888;2023-02-01T10:15:34;8.06;59.24
72114;SHT31;59989;46.220;19.888;2023-02-01T10:21:58;8.74;57.86
72114;SHT31;59989;46.220;19.888;2023-02-01T10:25:23;8.71;57.94
72114;SHT31;59989;46.220;19.888;2023-02-01T10:28:30;9.25;56.40
72114;SHT31;59989;46.220;19.888;2023-02-01T10:31:37;9.44;54.88
72114;SHT31;59989;46.220;19.888;2023-02-01T10:34:41;9.13;57.05
72114;SHT31;59989;46.220;19.888;2023-02-01T10:37:45;8.82;55.45
72114;SHT31;59989;46.220;19.888;2023-02-01T10:40:49;8.60;57.74
72114;SHT31;59989;46.220;19.888;2023-02-01T10:43:55;8.55;58.56
72114;SHT31;59989;46.220;19.888;2023-02-01T10:46:59;8.65;58.33
72114;SHT31;59989;46.220;19.888;2023-02-01T10:56:39;9.01;58.29
72114;SHT31;59989;46.220;19.888;2023-02-01T10:59:42;8.95;58.45
72114;SHT31;59989;46.220;19.888;2023-02-01T11:02:47;8.86;58.87
72114;SHT31;59989;46.220;19.888;2023-02-01T11:05:55;8.68;60.06
72114;SHT31;59989;46.220;19.888;2023-02-01T11:09:00;8.69;59.83
72114;SHT31;59989;46.220;19.888;2023-02-01T11:12:03;8.74;60.20
72114;SHT31;59989;46.220;19.888;2023-02-01T11:15:21;8.78;60.67
72114;SHT31;59989;46.220;19.888;2023-02-01T11:18:29;8.89;60.33
72114;SHT31;59989;46.220;19.888;2023-02-01T11:21:35;8.79;59.89
72114;SHT31;59989;46.220;19.888;2023-02-01T11:24:40;8.78;59.71
72114;SHT31;59989;46.220;19.888;2023-02-01T11:27:48;8.93;60.73
72114;SHT31;59989;46.220;19.888;2023-02-01T11:30:59;8.81;61.13
72114;SHT31;59989;46.220;19.888;2023-02-01T11:34:16;8.86;61.21
72114;SHT31;59989;46.220;19.888;2023-02-01T11:37:31;8.86;61.10
72114;SHT31;59989;46.220;19.888;2023-02-01T11:40:37;8.86;61.00
72114;SHT31;59989;46.220;19.888;2023-02-01T11:44:20;8.88;60.92
72114;SHT31;59989;46.220;19.888;2023-02-01T11:47:26;8.92;61.14
72114;SHT31;59989;46.220;19.888;2023-02-01T12:07:48;9.81;58.32
72114;SHT31;59989;46.220;19.888;2023-02-01T12:24:48;10.08;55.22
72114;SHT31;59989;46.220;19.888;2023-02-01T12:32:13;9.88;54.76
72114;SHT31;59989;46.220;19.888;2023-02-01T12:42:20;9.82;55.03
72114;SHT31;59989;46.220;19.888;2023-02-01T12:52:10;9.34;56.41
72114;SHT31;59989;46.220;19.888;2023-02-01T12:58:41;9.16;57.05
72114;SHT31;59989;46.220;19.888;2023-02-01T13:08:53;9.02;57.69
72114;SHT31;59989;46.220;19.888;2023-02-01T13:11:54;9.01;58.45
72114;SHT31;59989;46.220;19.888;2023-02-01T13:15:05;9.01;58.15
72114;SHT31;59989;46.220;19.888;2023-02-01T13:18:16;8.99;58.83
72114;SHT31;59989;46.220;19.888;2023-02-01T13:21:34;8.92;59.33
72114;SHT31;59989;46.220;19.888;2023-02-01T13:24:42;8.84;59.18
72114;SHT31;59989;46.220;19.888;2023-02-01T13:27:47;8.76;58.89
72114;SHT31;59989;46.220;19.888;2023-02-01T13:38:21;8.60;61.75
72114;SHT31;59989;46.220;19.888;2023-02-01T13:41:33;8.50;61.82
72114;SHT31;59989;46.220;19.888;2023-02-01T13:44:42;8.43;62.33
72114;SHT31;59989;46.220;19.888;2023-02-01T13:47:47;8.37;65.86
72114;SHT31;59989;46.220;19.888;2023-02-01T13:50:55;8.14;71.16
72114;SHT31;59989;46.220;19.888;2023-02-01T13:53:59;7.89;73.38
72114;SHT31;59989;46.220;19.888;2023-02-01T13:57:03;7.71;75.31
72114;SHT31;59989;46.220;19.888;2023-02-01T14:03:53;7.58;76.28
72114;SHT31;59989;46.220;19.888;2023-02-01T14:06:56;7.48;75.22
72114;SHT31;59989;46.220;19.888;2023-02-01T14:13:41;7.40;75.29
72114;SHT31;59989;46.220;19.888;2023-02-01T14:23:40;7.28;76.28
72114;SHT31;59989;46.220;19.888;2023-02-01T14:26:47;7.20;75.69
72114;SHT31;59989;46.220;19.888;2023-02-01T14:30:02;7.19;75.95
72114;SHT31;59989;46.220;19.888;2023-02-01T14:33:33;7.09;76.60
72114;SHT31;59989;46.220;19.888;2023-02-01T14:36:51;7.09;76.93
72114;SHT31;59989;46.220;19.888;2023-02-01T14:40:00;7.03;77.89
72114;SHT31;59989;46.220;19.888;2023-02-01T14:43:03;6.90;75.59
72114;SHT31;59989;46.220;19.888;2023-02-01T14:46:06;6.83;72.01
72114;SHT31;59989;46.220;19.888;2023-02-01T14:49:10;6.78;71.98
72114;SHT31;59989;46.220;19.888;2023-02-01T14:52:16;6.75;72.57
72114;SHT31;59989;46.220;19.888;2023-02-01T14:59:07;6.79;70.06
72114;SHT31;59989;46.220;19.888;2023-02-01T15:02:21;6.76;69.68
72114;SHT31;59989;46.220;19.888;2023-02-01T15:05:32;6.72;70.80
72114;SHT31;59989;46.220;19.888;2023-02-01T15:08:37;6.72;69.67
72114;SHT31;59989;46.220;19.888;2023-02-01T15:12:02;6.72;70.89
72114;SHT31;59989;46.220;19.888;2023-02-01T15:15:19;6.69;71.11
72114;SHT31;59989;46.220;19.888;2023-02-01T15:18:21;6.55;72.78
72114;SHT31;59989;46.220;19.888;2023-02-01T15:21:24;6.25;73.81
72114;SHT31;59989;46.220;19.888;2023-02-01T15:24:33;6.01;77.35
72114;SHT31;59989;46.220;19.888;2023-02-01T15:27:36;5.80;79.41
72114;SHT31;59989;46.220;19.888;2023-02-01T15:30:38;5.76;79.79
72114;SHT31;59989;46.220;19.888;2023-02-01T15:33:55;5.66;79.76
72114;SHT31;59989;46.220;19.888;2023-02-01T15:37:04;5.35;83.20
72114;SHT31;59989;46.220;19.888;2023-02-01T15:43:14;4.59;87.01
72114;SHT31;59989;46.220;19.888;2023-02-01T15:46:32;4.39;88.58
72114;SHT31;59989;46.220;19.888;2023-02-01T15:49:38;4.31;88.18
72114;SHT31;59989;46.220;19.888;2023-02-01T15:52:42;4.19;88.68
72114;SHT31;59989;46.220;19.888;2023-02-01T15:55:45;4.22;89.18
72114;SHT31;59989;46.220;19.888;2023-02-01T15:58:53;4.18;89.54
72114;SHT31;59989;46.220;19.888;2023-02-01T16:01:56;4.15;89.56
72114;SHT31;59989;46.220;19.888;2023-02-01T16:04:59;4.11;90.18
72114;SHT31;59989;46.220;19.888;2023-02-01T16:08:10;4.09;90.11
72114;SHT31;59989;46.220;19.888;2023-02-01T16:14:31;4.07;90.23
72114;SHT31;59989;46.220;19.888;2023-02-01T16:17:34;4.09;90.24
72114;SHT31;59989;46.220;19.888;2023-02-01T16:20:39;4.07;90.33
72114;SHT31;59989;46.220;19.888;2023-02-01T16:23:42;3.99;90.49
72114;SHT31;59989;46.220;19.888;2023-02-01T16:26:44;3.97;90.73
72114;SHT31;59989;46.220;19.888;2023-02-01T16:29:48;3.90;90.77
72114;SHT31;59989;46.220;19.888;2023-02-01T16:32:55;3.88;90.98
72114;SHT31;59989;46.220;19.888;2023-02-01T16:35:57;3.80;91.17
72114;SHT31;59989;46.220;19.888;2023-02-01T16:39:02;3.77;91.24
72114;SHT31;59989;46.220;19.888;2023-02-01T16:42:11;3.70;91.31
72114;SHT31;59989;46.220;19.888;2023-02-01T16:45:14;3.66;91.34
72114;SHT31;59989;46.220;19.888;2023-02-01T16:48:26;3.66;91.31
72114;SHT31;59989;46.220;19.888;2023-02-01T16:51:30;3.67;91.26
72114;SHT31;59989;46.220;19.888;2023-02-01T16:54:34;3.53;91.28
72114;SHT31;59989;46.220;19.888;2023-02-01T16:57:37;3.52;91.35
72114;SHT31;59989;46.220;19.888;2023-02-01T17:00:40;3.50;90.94
72114;SHT31;59989;46.220;19.888;2023-02-01T17:03:42;3.50;91.02
72114;SHT31;59989;46.220;19.888;2023-02-01T17:06:48;3.50;90.73
72114;SHT31;59989;46.220;19.888;2023-02-01T17:09:51;3.47;90.88
72114;SHT31;59989;46.220;19.888;2023-02-01T17:12:59;3.47;90.67
72114;SHT31;59989;46.220;19.888;2023-02-01T17:16:03;3.50;90.60
72114;SHT31;59989;46.220;19.888;2023-02-01T17:19:19;3.52;90.31
72114;SHT31;59989;46.220;19.888;2023-02-01T17:22:25;3.49;90.38
72114;SHT31;59989;46.220;19.888;2023-02-01T17:25:29;3.52;90.22
72114;SHT31;59989;46.220;19.888;2023-02-01T17:28:32;3.52;90.07
72114;SHT31;59989;46.220;19.888;2023-02-01T17:31:39;3.50;90.26
72114;SHT31;59989;46.220;19.888;2023-02-01T17:34:42;3.46;90.42
72114;SHT31;59989;46.220;19.888;2023-02-01T17:37:46;3.50;90.31
72114;SHT31;59989;46.220;19.888;2023-02-01T17:40:50;3.53;89.93
72114;SHT31;59989;46.220;19.888;2023-02-01T17:43:53;3.47;90.19
72114;SHT31;59989;46.220;19.888;2023-02-01T17:46:55;3.47;90.35
72114;SHT31;59989;46.220;19.888;2023-02-01T17:50:00;3.46;90.22
72114;SHT31;59989;46.220;19.888;2023-02-01T17:53:04;3.49;89.93
72114;SHT31;59989;46.220;19.888;2023-02-01T17:56:12;3.47;90.15
72114;SHT31;59989;46.220;19.888;2023-02-01T17:59:15;3.43;90.17
72114;SHT31;59989;46.220;19.888;2023-02-01T18:02:20;3.43;90.07
72114;SHT31;59989;46.220;19.888;2023-02-01T18:05:28;3.40;90.24
72114;SHT31;59989;46.220;19.888;2023-02-01T18:08:35;3.35;90.04
72114;SHT31;59989;46.220;19.888;2023-02-01T18:11:37;3.28;90.41
72114;SHT31;59989;46.220;19.888;2023-02-01T18:14:39;3.19;90.54
72114;SHT31;59989;46.220;19.888;2023-02-01T18:17:42;3.11;90.60
72114;SHT31;59989;46.220;19.888;2023-02-01T18:20:45;3.07;90.63
72114;SHT31;59989;46.220;19.888;2023-02-01T18:23:49;2.97;90.81
72114;SHT31;59989;46.220;19.888;2023-02-01T18:26:52;2.88;90.81
72114;SHT31;59989;46.220;19.888;2023-02-01T18:29:54;2.90;90.81
72114;SHT31;59989;46.220;19.888;2023-02-01T18:32:57;2.91;90.57
72114;SHT31;59989;46.220;19.888;2023-02-01T18:36:00;2.81;90.64
72114;SHT31;59989;46.220;19.888;2023-02-01T18:39:02;2.74;90.78
72114;SHT31;59989;46.220;19.888;2023-02-01T18:42:08;2.85;90.69
72114;SHT31;59989;46.220;19.888;2023-02-01T18:48:21;3.22;88.64
72114;SHT31;59989;46.220;19.888;2023-02-01T18:51:24;3.47;87.22
72114;SHT31;59989;46.220;19.888;2023-02-01T18:54:27;3.53;86.50
72114;SHT31;59989;46.220;19.888;2023-02-01T18:57:30;3.73;85.12
72114;SHT31;59989;46.220;19.888;2023-02-01T19:00:34;3.81;84.75
72114;SHT31;59989;46.220;19.888;2023-02-01T19:03:37;3.83;84.32
72114;SHT31;59989;46.220;19.888;2023-02-01T19:06:46;3.78;84.42
72114;SHT31;59989;46.220;19.888;2023-02-01T19:09:48;3.70;84.68
72114;SHT31;59989;46.220;19.888;2023-02-01T19:12:53;3.74;84.08
72114;SHT31;59989;46.220;19.888;2023-02-01T19:16:08;3.80;83.38
72114;SHT31;59989;46.220;19.888;2023-02-01T19:19:11;3.90;82.67
72114;SHT31;59989;46.220;19.888;2023-02-01T19:22:14;3.81;82.78
72114;SHT31;59989;46.220;19.888;2023-02-01T19:25:20;3.80;82.83
72114;SHT31;59989;46.220;19.888;2023-02-01T19:28:23;3.74;82.97
72114;SHT31;59989;46.220;19.888;2023-02-01T19:31:26;3.70;82.97
72114;SHT31;59989;46.220;19.888;2023-02-01T19:34:29;3.64;83.23
72114;SHT31;59989;46.220;19.888;2023-02-01T19:37:33;3.57;83.22
72114;SHT31;59989;46.220;19.888;2023-02-01T19:40:36;3.56;83.13
72114;SHT31;59989;46.220;19.888;2023-02-01T19:43:39;3.57;82.86
72114;SHT31;59989;46.220;19.888;2023-02-01T19:46:42;3.53;82.97
72114;SHT31;59989;46.220;19.888;2023-02-01T19:49:45;3.50;83.03
72114;SHT31;59989;46.220;19.888;2023-02-01T19:52:48;3.42;83.39
72114;SHT31;59989;46.220;19.888;2023-02-01T19:55:53;3.39;83.45
72114;SHT31;59989;46.220;19.888;2023-02-01T19:58:56;3.32;83.69
72114;SHT31;59989;46.220;19.888;2023-02-01T20:01:59;3.38;83.06
72114;SHT31;59989;46.220;19.888;2023-02-01T20:05:03;3.40;82.72
72114;SHT31;59989;46.220;19.888;2023-02-01T20:08:06;3.49;82.04
72114;SHT31;59989;46.220;19.888;2023-02-01T20:11:08;3.47;82.42
72114;SHT31;59989;46.220;19.888;2023-02-01T20:14:12;3.42;82.26
72114;SHT31;59989;46.220;19.888;2023-02-01T20:17:15;3.39;82.54
72114;SHT31;59989;46.220;19.888;2023-02-01T20:20:20;3.36;82.61
72114;SHT31;59989;46.220;19.888;2023-02-01T20:23:23;3.35;82.61
72114;SHT31;59989;46.220;19.888;2023-02-01T20:26:26;3.22;82.70
72114;SHT31;59989;46.220;19.888;2023-02-01T20:29:30;3.19;82.91
72114;SHT31;59989;46.220;19.888;2023-02-01T20:32:32;3.19;82.69
72114;SHT31;59989;46.220;19.888;2023-02-01T20:35:35;3.19;82.73
72114;SHT31;59989;46.220;19.888;2023-02-01T20:38:38;3.19;83.00
72114;SHT31;59989;46.220;19.888;2023-02-01T20:41:41;3.23;82.53
72114;SHT31;59989;46.220;19.888;2023-02-01T20:44:44;3.20;82.40
72114;SHT31;59989;46.220;19.888;2023-02-01T20:47:50;3.19;82.24
72114;SHT31;59989;46.220;19.888;2023-02-01T20:50:54;3.12;82.69
72114;SHT31;59989;46.220;19.888;2023-02-01T20:53:57;3.09;82.94
72114;SHT31;59989;46.220;19.888;2023-02-01T20:57:00;3.09;82.97
72114;SHT31;59989;46.220;19.888;2023-02-01T21:00:04;2.98;83.52
72114;SHT31;59989;46.220;19.888;2023-02-01T21:03:12;2.94;83.90
72114;SHT31;59989;46.220;19.888;2023-02-01T21:06:15;2.83;84.14
72114;SHT31;59989;46.220;19.888;2023-02-01T21:09:18;2.84;83.90
72114;SHT31;59989;46.220;19.888;2023-02-01T21:12:21;2.78;83.83
72114;SHT31;59989;46.220;19.888;2023-02-01T21:15:24;2.78;84.10
72114;SHT31;59989;46.220;19.888;2023-02-01T21:18:28;2.74;84.83
72114;SHT31;59989;46.220;19.888;2023-02-01T21:21:33;2.78;83.70
72114;SHT31;59989;46.220;19.888;2023-02-01T21:24:35;2.74;84.77
72114;SHT31;59989;46.220;19.888;2023-02-01T21:27:38;2.67;85.17
72114;SHT31;59989;46.220;19.888;2023-02-01T21:30:40;2.60;85.53
72114;SHT31;59989;46.220;19.888;2023-02-01T21:33:43;2.64;85.22
72114;SHT31;59989;46.220;19.888;2023-02-01T21:36:48;2.64;85.33
72114;SHT31;59989;46.220;19.888;2023-02-01T21:39:51;2.62;85.34
72114;SHT31;59989;46.220;19.888;2023-02-01T21:42:53;2.67;85.05
72114;SHT31;59989;46.220;19.888;2023-02-01T21:45:56;2.57;85.42
72114;SHT31;59989;46.220;19.888;2023-02-01T21:49:04;2.64;85.08